Time;durP1;ratioP1;P1;durP2;ratioP2;P2;SDS_P1;SDS_P2;PMS_P1;PMS_P2;Temp;Humidity;BMP_temperature;BMP_pressure;BME280_temperature;BME280_humidity;BME280_pressure;Samples;Min_cycle;Max_cycle;Signal;HPM_P1;HPM_P2
2022/05/28 00:00:21;;;;;;;1.70;1.50;;;;;;;7.17;72.48;99881.35;84817;1321;22663;-73
2022/05/28 00:02:41;;;;;;;2.70;1.80;;;;;;;7.16;72.45;99881.41;84813;1323;22579;-72
2022/05/28 00:04:48;;;;;;;3.70;1.30;;;;;;;7.14;72.57;99884.25;84810;1321;24332;-72
2022/05/28 00:06:56;;;;;;;7.00;2.00;;;;;;;7.12;72.56;99885.00;84799;1324;22579;-72
2022/05/28 00:09:05;;;;;;;3.60;1.20;;;;;;;7.10;72.48;99881.94;84802;1322;22591;-72
2022/05/28 00:11:19;;;;;;;3.40;1.30;;;;;;;7.11;72.68;99883.45;84804;1322;22661;-72
2022/05/28 00:13:26;;;;;;;2.20;1.20;;;;;;;7.12;72.67;99889.67;84815;1324;22691;-73
2022/05/28 00:15:33;;;;;;;3.40;1.60;;;;;;;7.12;72.66;99890.40;84807;1324;25491;-73
2022/05/28 00:17:41;;;;;;;2.70;0.90;;;;;;;7.11;72.67;99887.46;84797;1324;24295;-72
2022/05/28 00:19:48;;;;;;;4.30;1.40;;;;;;;7.10;72.78;99890.44;84816;1324;24306;-72
2022/05/28 00:21:56;;;;;;;3.90;1.40;;;;;;;7.08;72.68;99886.51;84803;1323;23889;-72
2022/05/28 00:24:03;;;;;;;4.50;1.10;;;;;;;7.06;72.88;99883.81;84797;1318;22834;-72
2022/05/28 00:26:11;;;;;;;4.10;1.20;;;;;;;7.04;73.01;99884.92;84106;1324;1003532;-73
2022/05/28 00:28:21;;;;;;;1.40;0.90;;;;;;;7.01;73.18;99885.86;84806;1324;22587;-72
2022/05/28 00:30:27;;;;;;;;;;;;;;;6.99;72.81;99886.30;84810;1323;22591;-72
2022/05/28 00:32:34;;;;;;;2.50;1.50;;;;;;;6.94;73.03;99889.53;84811;1320;22573;-72
2022/05/28 00:34:42;;;;;;;1.50;1.00;;;;;;;6.95;73.37;99891.27;84806;1319;22599;-72
2022/05/28 00:36:49;;;;;;;3.50;1.40;;;;;;;6.95;73.36;99890.55;84811;1324;24391;-72
2022/05/28 00:38:57;;;;;;;5.10;1.10;;;;;;;6.96;73.31;99890.20;84819;1320;22639;-72
2022/05/28 00:41:04;;;;;;;3.40;0.90;;;;;;;6.97;73.48;99889.28;84814;1324;25914;-72
2022/05/28 00:43:12;;;;;;;3.80;1.10;;;;;;;6.97;73.37;99886.67;84802;1323;25438;-72
2022/05/28 00:45:20;;;;;;;1.90;1.10;;;;;;;6.97;73.43;99886.34;84833;1319;22582;-73
2022/05/28 00:47:27;;;;;;;1.70;1.10;;;;;;;6.97;73.37;99881.14;84809;1324;22834;-72
2022/05/28 00:49:35;;;;;;;1.70;0.90;;;;;;;6.96;73.62;99881.52;84824;1322;22648;-72
2022/05/28 00:51:45;;;;;;;2.70;2.40;;;;;;;6.95;73.49;99879.29;84810;1326;22912;-72
2022/05/28 00:53:54;;;;;;;2.80;0.90;;;;;;;6.93;73.50;99874.13;84760;1327;22623;-72
2022/05/28 00:56:03;;;;;;;3.00;0.90;;;;;;;6.91;73.69;99875.59;84810;1320;22927;-73
2022/05/28 00:58:11;;;;;;;1.20;0.90;;;;;;;6.88;73.86;99876.20;84819;1324;22583;-73
2022/05/28 01:00:22;;;;;;;2.30;1.10;;;;;;;6.85;73.54;99877.34;84809;1320;22596;-73
2022/05/28 01:02:39;;;;;;;4.10;1.00;;;;;;;6.81;73.78;99873.83;84821;1324;22592;-73
2022/05/28 01:04:51;;;;;;;4.80;1.10;;;;;;;6.78;73.90;99875.15;84806;1323;22643;-71
2022/05/28 01:07:03;;;;;;;3.10;1.10;;;;;;;6.76;74.15;99873.13;84822;1325;22693;-72
2022/05/28 01:09:14;;;;;;;4.50;1.10;;;;;;;6.75;74.36;99872.09;84788;1324;22642;-72
2022/05/28 01:11:27;;;;;;;4.10;1.00;;;;;;;6.74;74.57;99869.89;84815;1323;25246;-73
2022/05/28 01:13:43;;;;;;;1.10;0.90;;;;;;;6.71;74.49;99871.18;84805;1323;25976;-72
2022/05/28 01:15:54;;;;;;;2.90;1.40;;;;;;;6.70;74.46;99870.71;84810;1324;22659;-72
2022/05/28 01:18:05;;;;;;;2.10;1.10;;;;;;;6.70;74.82;99866.17;84805;1323;22597;-72
2022/05/28 01:20:16;;;;;;;1.70;0.90;;;;;;;6.70;74.75;99863.38;84821;1323;24212;-73
2022/05/28 01:22:28;;;;;;;1.90;1.00;;;;;;;6.67;74.90;99862.45;84810;1324;25448;-72
2022/05/28 01:24:41;;;;;;;2.60;0.90;;;;;;;6.64;74.96;99860.83;84830;1324;22590;-72
2022/05/28 01:26:55;;;;;;;2.40;0.80;;;;;;;6.62;75.11;99859.67;84822;1324;22594;-73
2022/05/28 01:29:05;;;;;;;4.50;0.70;;;;;;;6.61;74.92;99860.73;84810;1323;22604;-73
2022/05/28 01:31:13;;;;;;;4.30;1.00;;;;;;;6.60;74.98;99858.33;84829;1323;25497;-72
2022/05/28 01:33:20;;;;;;;9.00;1.70;;;;;;;6.58;74.95;99858.03;84796;1324;24219;-72
2022/05/28 01:35:28;;;;;;;5.50;2.00;;;;;;;6.60;75.12;99857.65;84825;1323;22925;-72
2022/05/28 01:37:35;;;;;;;2.30;1.10;;;;;;;6.61;75.15;99854.52;84786;1324;24138;-72
2022/05/28 01:39:46;;;;;;;2.00;0.90;;;;;;;6.63;75.44;99851.33;84836;1323;24018;-70
2022/05/28 01:41:53;;;;;;;3.50;1.20;;;;;;;6.65;75.33;99848.14;84811;1323;22778;-72
2022/05/28 01:44:01;;;;;;;3.20;1.60;;;;;;;6.65;75.40;99849.52;84828;1324;22596;-73
2022/05/28 01:46:09;;;;;;;5.90;1.00;;;;;;;6.64;75.02;99849.72;84801;1323;22628;-72
2022/05/28 01:48:16;;;;;;;4.50;1.30;;;;;;;6.63;75.17;99848.04;84821;1324;22650;-72
2022/05/28 01:50:25;;;;;;;4.00;1.60;;;;;;;6.60;75.19;99849.31;84819;1324;22613;-72
2022/05/28 01:52:33;;;;;;;5.10;1.10;;;;;;;6.59;75.52;99848.67;84812;1323;24168;-72
2022/05/28 01:54:45;;;;;;;2.10;1.10;;;;;;;6.57;75.38;99844.21;84831;1323;22578;-72
2022/05/28 01:56:54;;;;;;;3.90;2.20;;;;;;;6.56;75.32;99842.89;84102;1324;1003078;-72
2022/05/28 01:59:01;;;;;;;3.10;1.50;;;;;;;6.55;75.52;99844.47;84832;1323;25257;-72
2022/05/28 02:01:09;;;;;;;2.10;1.40;;;;;;;6.55;75.73;99846.20;84810;1323;22587;-72
2022/05/28 02:03:17;;;;;;;2.60;1.10;;;;;;;6.54;75.41;99846.23;84806;1324;22665;-73
2022/05/28 02:05:24;;;;;;;1.50;0.90;;;;;;;6.52;75.54;99846.63;84809;1322;22662;-73
2022/05/28 02:07:32;;;;;;;2.40;1.00;;;;;;;6.53;75.78;99843.14;84800;1323;22582;-72
2022/05/28 02:09:41;;;;;;;3.00;1.20;;;;;;;6.53;75.59;99842.43;84816;1323;22834;-72
2022/05/28 02:12:00;;;;;;;3.90;1.40;;;;;;;6.53;75.92;99840.18;84808;1323;22670;-72
2022/05/28 02:14:18;;;;;;;3.00;1.20;;;;;;;6.54;76.01;99835.30;84808;1324;22582;-73
2022/05/28 02:16:30;;;;;;;1.90;1.00;;;;;;;6.57;75.99;99834.88;84826;1323;22588;-73
2022/05/28 02:18:44;;;;;;;5.30;1.10;;;;;;;6.58;76.06;99831.00;84829;1323;22629;-72
2022/05/28 02:20:57;;;;;;;5.10;1.70;;;;;;;6.59;76.12;99830.81;84813;1324;22600;-72
2022/05/28 02:23:07;;;;;;;3.70;1.30;;;;;;;6.61;76.06;99826.42;84838;1322;22674;-72
2022/05/28 02:25:16;;;;;;;5.60;1.20;;;;;;;6.61;75.97;99827.65;84797;1322;22841;-72
2022/05/28 02:27:24;;;;;;;4.70;1.20;;;;;;;6.60;76.16;99826.12;84818;1324;22851;-72
2022/05/28 02:29:31;;;;;;;3.00;1.00;;;;;;;6.60;76.07;99827.84;84821;1322;22569;-73
2022/05/28 02:31:41;;;;;;;5.90;1.10;;;;;;;6.63;76.04;99827.58;84816;1323;25958;-72
2022/05/28 02:33:49;;;;;;;2.60;1.10;;;;;;;6.65;76.33;99825.42;84798;1323;25955;-72
2022/05/28 02:35:56;;;;;;;2.90;1.10;;;;;;;6.65;76.27;99825.44;84831;1324;22632;-72
2022/05/28 02:38:04;;;;;;;3.70;1.40;;;;;;;6.67;76.36;99823.10;84817;1324;22648;-72
2022/05/28 02:40:13;;;;;;;2.40;1.40;;;;;;;6.69;76.25;99820.96;84816;1320;22584;-72
2022/05/28 02:42:21;;;;;;;3.90;1.50;;;;;;;6.70;76.51;99819.56;84782;1323;22873;-72
2022/05/28 02:44:29;;;;;;;3.40;0.90;;;;;;;6.72;76.25;99821.75;84770;1320;22573;-73
2022/05/28 02:46:36;;;;;;;4.20;1.30;;;;;;;6.72;76.26;99815.16;84783;1322;22588;-72
2022/05/28 02:48:45;;;;;;;2.80;1.10;;;;;;;6.73;76.44;99812.70;84800;1325;22608;-72
2022/05/28 02:50:53;;;;;;;4.60;1.10;;;;;;;6.79;76.49;99810.45;84786;1325;22657;-72
2022/05/28 02:53:01;;;;;;;4.10;1.60;;;;;;;6.86;76.70;99811.43;84809;1325;24010;-72
2022/05/28 02:55:12;;;;;;;2.60;1.10;;;;;;;6.96;76.63;99817.52;84781;1327;22594;-73
2022/05/28 02:57:19;;;;;;;2.80;1.10;;;;;;;7.06;76.89;99813.73;84776;1326;22607;-72
2022/05/28 02:59:27;;;;;;;2.00;0.70;;;;;;;7.16;76.97;99813.75;84783;1325;22607;-72
2022/05/28 03:01:35;;;;;;;4.70;1.30;;;;;;;7.28;76.68;99816.84;84798;1325;22601;-71
2022/05/28 03:03:42;;;;;;;3.20;1.10;;;;;;;7.38;76.66;99815.98;84778;1325;22938;-72
2022/05/28 03:05:50;;;;;;;3.90;1.60;;;;;;;7.45;76.46;99821.62;84800;1320;22580;-73
2022/05/28 03:07:58;;;;;;;4.00;1.60;;;;;;;7.53;76.26;99819.98;84811;1325;22757;-72
2022/05/28 03:10:07;;;;;;;4.70;1.20;;;;;;;7.60;76.08;99821.13;84799;1327;24392;-72
2022/05/28 03:12:15;;;;;;;5.80;1.20;;;;;;;7.65;75.85;99816.62;84793;1326;22659;-72
2022/05/28 03:14:24;;;;;;;4.70;1.40;;;;;;;7.69;75.77;99817.69;84786;1324;24125;-73
2022/05/28 03:16:31;;;;;;;4.50;1.50;;;;;;;7.74;75.54;99817.86;84801;1327;23008;-72
2022/05/28 03:18:39;;;;;;;6.60;1.60;;;;;;;7.76;75.62;99817.92;84794;1321;22854;-73
2022/05/28 03:20:46;;;;;;;6.00;1.80;;;;;;;7.80;75.66;99812.45;84786;1327;22652;-73
2022/05/28 03:22:54;;;;;;;4.10;1.80;;;;;;;7.84;75.41;99811.78;84799;1325;25259;-73
2022/05/28 03:25:01;;;;;;;2.70;1.50;;;;;;;7.89;75.32;99811.61;84790;1325;25420;-73
2022/05/28 03:27:10;;;;;;;1.80;1.00;;;;;;;7.95;75.55;99812.42;84818;1324;24287;-73
2022/05/28 03:29:17;;;;;;;4.60;1.80;;;;;;;8.00;75.29;99814.14;84785;1325;22587;-72
2022/05/28 03:31:25;;;;;;;5.90;1.40;;;;;;;8.06;75.23;99810.10;84780;1325;22741;-72
2022/05/28 03:33:33;;;;;;;3.60;1.20;;;;;;;8.11;75.14;99806.61;84791;1326;25247;-72
2022/05/28 03:35:40;;;;;;;2.50;1.00;;;;;;;8.17;74.97;99804.33;84786;1325;24207;-73
2022/05/28 03:37:48;;;;;;;5.90;1.20;;;;;;;8.24;74.76;99801.44;84787;1326;22736;-72
2022/05/28 03:39:55;;;;;;;9.00;1.10;;;;;;;8.32;74.90;99802.70;84777;1325;22874;-74
2022/05/28 03:42:02;;;;;;;5.60;1.20;;;;;;;8.39;74.79;99799.71;84787;1325;22589;-72
2022/05/28 03:44:11;;;;;;;6.50;1.40;;;;;;;8.46;74.76;99800.13;84775;1326;24210;-73
2022/05/28 03:46:26;;;;;;;7.90;1.60;;;;;;;8.54;74.51;99799.13;84794;1326;22575;-73
2022/05/28 03:48:34;;;;;;;4.60;1.00;;;;;;;8.63;74.33;99803.83;84826;1326;22585;-72
2022/05/28 03:50:42;;;;;;;4.80;1.70;;;;;;;8.69;74.06;99806.33;84764;1326;22618;-72
2022/05/28 03:52:49;;;;;;;3.80;0.80;;;;;;;8.75;74.03;99806.10;84774;1326;22698;-72
2022/05/28 03:54:56;;;;;;;1.90;1.00;;;;;;;8.79;73.94;99806.66;84797;1325;22603;-72
2022/05/28 03:57:07;;;;;;;4.40;1.30;;;;;;;8.82;73.81;99803.24;84787;1327;22664;-73
2022/05/28 03:59:15;;;;;;;3.30;1.20;;;;;;;8.87;73.85;99800.96;84791;1322;22585;-73
2022/05/28 04:01:22;;;;;;;6.10;1.40;;;;;;;8.95;74.07;99803.21;84798;1324;24277;-73
2022/05/28 04:03:30;;;;;;;4.20;1.30;;;;;;;9.09;74.15;99802.64;84772;1323;22598;-72
2022/05/28 04:05:39;;;;;;;4.10;1.40;;;;;;;9.22;74.14;99804.91;84796;1326;22962;-73
2022/05/28 04:07:46;;;;;;;3.70;1.20;;;;;;;9.28;74.03;99802.01;84798;1325;22671;-73
2022/05/28 04:09:54;;;;;;;2.60;1.30;;;;;;;9.31;73.73;99806.64;84812;1325;22576;-73
2022/05/28 04:12:01;;;;;;;6.10;2.30;;;;;;;9.31;73.49;99806.29;84659;1326;201322;-73
2022/05/28 04:14:09;;;;;;;4.70;1.70;;;;;;;9.29;73.19;99806.16;84779;1323;22731;-73
2022/05/28 04:16:17;;;;;;;3.40;0.90;;;;;;;9.27;73.11;99807.98;84790;1325;23984;-73
2022/05/28 04:18:24;;;;;;;5.50;1.40;;;;;;;9.27;73.16;99802.95;84798;1325;22619;-72
2022/05/28 04:20:32;;;;;;;2.90;1.60;;;;;;;9.28;73.06;99806.05;84788;1325;23706;-73
2022/05/28 04:22:39;;;;;;;5.10;1.40;;;;;;;9.28;72.87;99804.13;84798;1325;24206;-73
2022/05/28 04:24:47;;;;;;;3.50;1.40;;;;;;;9.29;72.83;99801.50;84794;1326;24313;-73
2022/05/28 04:26:54;;;;;;;5.60;1.90;;;;;;;9.34;72.74;99802.85;84793;1326;22770;-73
2022/05/28 04:29:01;;;;;;;3.70;1.20;;;;;;;9.44;72.66;99804.34;84675;1327;24385;-73
2022/05/28 04:31:09;;;;;;;2.80;0.90;;;;;;;9.55;72.59;99803.67;84790;1325;22628;-73
2022/05/28 04:33:16;;;;;;;2.30;1.00;;;;;;;9.63;72.58;99804.90;84781;1327;24233;-72
2022/05/28 04:35:25;;;;;;;9.40;1.40;;;;;;;9.69;72.29;99803.61;84773;1318;23064;-72
2022/05/28 04:37:32;;;;;;;1.80;0.90;;;;;;;9.75;71.83;99801.97;84783;1327;24385;-72
2022/05/28 04:39:39;;;;;;;5.00;1.20;;;;;;;9.89;72.08;99799.23;84804;1322;24278;-72
2022/05/28 04:41:47;;;;;;;3.70;1.10;;;;;;;10.10;72.07;99795.52;84789;1327;22595;-72
2022/05/28 04:43:54;;;;;;;4.50;2.10;;;;;;;10.23;71.64;99795.98;84786;1327;22581;-72
2022/05/28 04:46:02;;;;;;;3.30;1.30;;;;;;;10.29;71.02;99797.29;84783;1326;22584;-73
2022/05/28 04:48:10;;;;;;;1.40;0.90;;;;;;;10.33;70.92;99803.22;84806;1326;23051;-72
2022/05/28 04:50:18;;;;;;;2.40;1.20;;;;;;;10.37;70.56;99799.06;84794;1325;22601;-73
2022/05/28 04:52:25;;;;;;;3.30;1.00;;;;;;;10.37;69.98;99798.70;84784;1326;25090;-73
2022/05/28 04:54:33;;;;;;;2.90;1.00;;;;;;;10.33;69.39;99799.38;84782;1326;22605;-73
2022/05/28 04:56:40;;;;;;;4.70;1.70;;;;;;;10.31;69.49;99801.74;84789;1326;22571;-73
2022/05/28 04:58:47;;;;;;;5.10;1.10;;;;;;;10.30;69.24;99802.48;84793;1327;25289;-73
2022/05/28 05:00:55;;;;;;;6.00;1.40;;;;;;;10.32;69.34;99804.83;84783;1327;25959;-72
2022/05/28 05:03:02;;;;;;;6.30;1.30;;;;;;;10.35;69.30;99807.84;84777;1325;22823;-72
2022/05/28 05:05:11;;;;;;;2.20;1.10;;;;;;;10.39;69.21;99809.41;84780;1325;25280;-73
2022/05/28 05:07:19;;;;;;;8.30;1.10;;;;;;;10.44;69.11;99809.17;84801;1325;22585;-72
2022/05/28 05:09:26;;;;;;;4.10;1.10;;;;;;;10.49;68.86;99810.50;84813;1325;22584;-73
2022/05/28 05:11:34;;;;;;;4.70;1.50;;;;;;;10.54;68.67;99808.35;84764;1325;22593;-72
2022/05/28 05:13:41;;;;;;;5.10;1.00;;;;;;;10.60;68.65;99805.63;84797;1325;22607;-74
2022/05/28 05:15:49;;;;;;;2.20;1.20;;;;;;;10.71;68.55;99812.40;84778;1325;22600;-72
2022/05/28 05:17:56;;;;;;;5.50;1.10;;;;;;;11.12;69.07;99812.71;84793;1327;22581;-73
2022/05/28 05:20:04;;;;;;;1.50;0.80;;;;;;;11.34;68.38;99814.75;84792;1325;25333;-72
2022/05/28 05:22:11;;;;;;;4.30;1.50;;;;;;;11.49;67.67;99813.83;84786;1325;22681;-72
2022/05/28 05:24:19;;;;;;;6.50;1.70;;;;;;;11.62;66.70;99808.95;84774;1325;22621;-73
2022/05/28 05:26:26;;;;;;;5.50;1.30;;;;;;;11.70;66.29;99805.97;84784;1327;25498;-73
2022/05/28 05:28:33;;;;;;;2.80;1.30;;;;;;;11.72;66.19;99806.70;84800;1325;22584;-73
2022/05/28 05:30:41;;;;;;;6.70;1.10;;;;;;;11.75;65.80;99815.64;84795;1327;25959;-72
2022/05/28 05:32:48;;;;;;;3.80;1.50;;;;;;;11.86;65.77;99809.52;84761;1327;24390;-72
2022/05/28 05:34:56;;;;;;;3.50;1.00;;;;;;;12.15;65.79;99805.17;84807;1325;22589;-73
2022/05/28 05:37:03;;;;;;;6.40;1.70;;;;;;;12.18;64.70;99805.37;84789;1327;22722;-72
2022/05/28 05:39:11;;;;;;;2.20;1.30;;;;;;;12.19;64.40;99803.25;84788;1327;24297;-72
2022/05/28 05:41:18;;;;;;;4.40;1.70;;;;;;;12.35;64.19;99803.91;84812;1319;24278;-72
2022/05/28 05:43:25;;;;;;;2.80;1.00;;;;;;;12.42;63.74;99801.63;84800;1327;22940;-72
2022/05/28 05:45:33;;;;;;;3.00;1.20;;;;;;;12.36;62.54;99799.32;84794;1325;22835;-73
2022/05/28 05:47:40;;;;;;;5.90;1.70;;;;;;;12.25;62.79;99802.02;84793;1325;22591;-72
2022/05/28 05:49:48;;;;;;;3.10;1.50;;;;;;;12.19;62.73;99808.63;84788;1325;22708;-73
2022/05/28 05:51:55;;;;;;;4.20;1.40;;;;;;;12.18;62.94;99807.68;84781;1326;22603;-72
2022/05/28 05:54:03;;;;;;;4.00;1.40;;;;;;;12.22;62.99;99807.80;84804;1325;25291;-72
2022/05/28 05:56:11;;;;;;;2.80;1.70;;;;;;;12.28;63.17;99803.27;84799;1326;22704;-72
2022/05/28 05:58:18;;;;;;;3.80;2.70;;;;;;;12.48;62.65;99802.52;84799;1326;25953;-72
2022/05/28 06:00:26;;;;;;;4.30;2.10;;;;;;;12.85;63.49;99802.70;84805;1327;22604;-70
2022/05/28 06:02:34;;;;;;;4.10;1.70;;;;;;;14.26;65.72;99800.33;84807;1325;22792;-72
2022/05/28 06:04:41;;;;;;;4.70;2.10;;;;;;;15.45;62.18;99797.77;84786;1326;22588;-73
2022/05/28 06:06:49;;;;;;;3.10;2.00;;;;;;;16.14;59.01;99794.40;84804;1326;22680;-72
2022/05/28 06:08:56;;;;;;;7.00;1.80;;;;;;;16.38;56.85;99790.60;84806;1327;23343;-73
2022/05/28 06:11:03;;;;;;;3.00;1.40;;;;;;;16.97;55.77;99788.47;84799;1323;25493;-72
2022/05/28 06:13:11;;;;;;;3.40;1.20;;;;;;;17.35;53.12;99782.83;84811;1322;22980;-75
2022/05/28 06:15:20;;;;;;;2.00;1.00;;;;;;;17.17;51.65;99786.66;84780;1318;22581;-71
2022/05/28 06:17:27;;;;;;;2.70;1.20;;;;;;;17.22;51.28;99787.17;84797;1326;24219;-72
2022/05/28 06:19:35;;;;;;;2.50;1.40;;;;;;;17.14;50.70;99784.25;84755;1326;22626;-72
2022/05/28 06:21:42;;;;;;;3.70;1.00;;;;;;;17.20;51.27;99782.89;84737;1329;22631;-73
2022/05/28 06:23:50;;;;;;;2.00;0.90;;;;;;;18.09;52.06;99773.78;84780;1322;22586;-72
2022/05/28 06:25:58;;;;;;;3.70;1.30;;;;;;;18.90;49.50;99772.62;84782;1324;22663;-73
2022/05/28 06:28:06;;;;;;;3.50;1.10;;;;;;;19.16;48.02;99773.30;84798;1326;22604;-73
2022/05/28 06:30:15;;;;;;;1.90;1.10;;;;;;;19.70;46.54;99769.59;84789;1327;22613;-73
2022/05/28 06:32:23;;;;;;;3.50;1.00;;;;;;;19.75;45.05;99776.27;84778;1327;22586;-73
2022/05/28 06:34:30;;;;;;;3.50;1.20;;;;;;;19.37;44.46;99777.54;84784;1325;22588;-73
2022/05/28 06:36:40;;;;;;;3.40;0.90;;;;;;;19.57;44.27;99772.52;84770;1327;24377;-73
2022/05/28 06:38:50;;;;;;;4.10;1.20;;;;;;;19.82;43.72;99772.28;84784;1327;24172;-72
2022/05/28 06:40:57;;;;;;;3.10;1.40;;;;;;;19.70;43.04;99771.56;84844;1327;25424;-72
2022/05/28 06:43:05;;;;;;;4.90;1.30;;;;;;;19.33;42.69;99776.41;84842;1327;22598;-72
2022/05/28 06:45:15;;;;;;;2.10;0.80;;;;;;;19.36;43.29;99770.77;84828;1328;22587;-75
2022/05/28 06:47:22;;;;;;;2.80;0.80;;;;;;;20.32;42.93;99772.58;84829;1323;22591;-73
2022/05/28 06:49:30;;;;;;;4.70;1.20;;;;;;;20.93;41.90;99765.19;84791;1325;22952;-74
2022/05/28 06:51:39;;;;;;;3.40;1.00;;;;;;;20.74;39.95;99767.05;84811;1326;22651;-73
2022/05/28 06:53:50;;;;;;;2.70;0.90;;;;;;;20.45;39.55;99767.50;84822;1327;23891;-73
2022/05/28 06:56:45;;;;;;;2.20;0.90;;;;;;;20.31;39.28;99765.05;84788;1327;24232;-73
2022/05/28 07:00:42;;;;;;;2.80;1.40;;;;;;;19.78;39.15;99772.17;84757;1327;22601;-73
2022/05/28 07:03:56;;;;;;;3.50;1.00;;;;;;;20.27;38.82;99767.80;84206;1337;22708;-73
2022/05/28 07:07:03;;;;;;;3.90;1.10;;;;;;;19.94;39.21;99770.25;84336;1337;24238;-71
2022/05/28 07:10:20;;;;;;;2.30;1.00;;;;;;;20.33;39.31;99763.93;84507;1333;22772;-73
2022/05/28 07:12:36;;;;;;;3.50;1.50;;;;;;;20.04;38.30;99767.08;84514;1333;24306;-73
2022/05/28 07:14:59;;;;;;;3.90;0.80;;;;;;;19.61;38.97;99773.91;84718;1326;23013;-73
2022/05/28 07:17:17;;;;;;;1.50;0.70;;;;;;;19.14;39.04;99774.11;84768;1327;22594;-72
2022/05/28 07:19:32;;;;;;;1.50;0.60;;;;;;;18.57;39.49;99775.08;84761;1326;25374;-73
2022/05/28 07:22:11;;;;;;;2.10;0.80;;;;;;;18.01;40.07;99777.05;84787;1323;22725;-73
2022/05/28 07:24:44;;;;;;;2.90;1.10;;;;;;;17.33;41.79;99780.83;84708;1325;22617;-72
2022/05/28 07:26:54;;;;;;;1.90;0.70;;;;;;;16.84;42.27;99780.31;84777;1322;22629;-73
2022/05/28 07:29:03;;;;;;;1.90;0.70;;;;;;;16.41;43.09;99783.59;84788;1326;22600;-73
2022/05/28 07:31:13;;;;;;;2.20;1.00;;;;;;;16.14;43.54;99781.95;84810;1327;22583;-72
2022/05/28 07:33:21;;;;;;;2.20;0.70;;;;;;;16.04;43.96;99781.05;84784;1328;22601;-72
2022/05/28 07:35:28;;;;;;;6.00;1.10;;;;;;;16.31;44.46;99778.79;84786;1327;22576;-73
2022/05/28 07:37:39;;;;;;;4.10;0.80;;;;;;;16.83;45.30;99776.09;84787;1326;25464;-73
2022/05/28 07:39:46;;;;;;;1.80;1.10;;;;;;;18.03;44.33;99770.38;84796;1324;24384;-73
2022/05/28 07:41:53;;;;;;;4.10;1.20;;;;;;;18.42;42.33;99776.34;84777;1321;24480;-73
2022/05/28 07:44:01;;;;;;;4.10;0.90;;;;;;;18.54;41.20;99775.60;84784;1328;22838;-73
2022/05/28 07:46:14;;;;;;;3.70;1.30;;;;;;;19.14;41.87;99774.52;84793;1326;22678;-73
2022/05/28 07:48:21;;;;;;;1.10;0.50;;;;;;;20.29;40.05;99769.27;84812;1322;22618;-73
2022/05/28 07:50:29;;;;;;;3.00;0.90;;;;;;;20.90;38.53;99767.79;84796;1327;25971;-73
2022/05/28 07:52:37;;;;;;;2.20;1.10;;;;;;;20.92;37.63;99768.33;84783;1327;22586;-73
2022/05/28 07:54:46;;;;;;;2.80;1.30;;;;;;;20.63;36.78;99767.36;84784;1323;22604;-73
2022/05/28 07:56:57;;;;;;;2.70;1.20;;;;;;;20.15;35.96;99774.01;84824;1326;25037;-73
2022/05/28 07:59:04;;;;;;;4.00;1.30;;;;;;;19.85;36.14;99772.94;84795;1327;24261;-73
2022/05/28 08:01:22;;;;;;;2.80;1.30;;;;;;;19.89;36.24;99772.79;84799;1321;24228;-73
2022/05/28 08:03:30;;;;;;;4.20;1.40;;;;;;;19.76;36.67;99769.85;84795;1326;22602;-73
2022/05/28 08:05:37;;;;;;;2.30;1.80;;;;;;;19.55;36.69;99770.85;84814;1325;25420;-73
2022/05/28 08:07:45;;;;;;;3.90;1.80;;;;;;;19.38;37.28;99776.56;84795;1327;22584;-72
2022/05/28 08:09:52;;;;;;;3.80;1.90;;;;;;;19.42;37.49;99772.38;84787;1328;22591;-73
2022/05/28 08:12:01;;;;;;;5.40;1.90;;;;;;;19.57;37.45;99773.00;84796;1325;24003;-73
2022/05/28 08:14:08;;;;;;;1.70;1.00;;;;;;;19.60;36.45;99771.36;84786;1328;22598;-73
2022/05/28 08:16:19;;;;;;;4.60;1.50;;;;;;;19.95;36.99;99769.02;84772;1329;22610;-73
2022/05/28 08:18:27;;;;;;;4.40;1.30;;;;;;;20.82;36.75;99769.17;84800;1326;22590;-73
2022/05/28 08:23:10;;;;;;;6.60;1.30;;;;;;;22.53;34.50;99757.42;84794;1326;22584;-73
2022/05/28 08:25:20;;;;;;;3.20;0.80;;;;;;;23.28;33.03;99759.05;84804;1326;23253;-73
2022/05/28 08:27:27;;;;;;;3.30;0.80;;;;;;;23.25;32.10;99762.50;84805;1327;22657;-71
2022/05/28 08:29:37;;;;;;;4.80;1.00;;;;;;;22.81;32.46;99764.99;84799;1325;25424;-72
2022/05/28 08:31:44;;;;;;;4.20;1.20;;;;;;;22.12;32.98;99778.08;84776;1327;25779;-73
2022/05/28 08:33:52;;;;;;;10.10;1.50;;;;;;;21.35;34.66;99781.55;84813;1327;22664;-73
2022/05/28 08:36:00;;;;;;;5.20;1.20;;;;;;;20.43;36.34;99780.41;84792;1326;22770;-73
2022/05/28 08:38:09;;;;;;;5.70;1.10;;;;;;;19.67;38.33;99783.52;84818;1322;22584;-72
2022/05/28 08:40:17;;;;;;;8.70;1.20;;;;;;;19.12;40.10;99783.14;84789;1326;22613;-73
2022/05/28 08:42:26;;;;;;;3.00;1.10;;;;;;;19.25;41.63;99775.16;84803;1327;23036;-73
2022/05/28 08:44:39;;;;;;;2.40;1.00;;;;;;;19.23;41.89;99774.27;84787;1326;22604;-73
2022/05/28 08:46:48;;;;;;;5.00;1.40;;;;;;;19.73;43.52;99770.01;84799;1318;22582;-73
2022/05/28 08:48:57;;;;;;;1.80;1.20;;;;;;;20.49;42.27;99760.48;84810;1327;22588;-73
2022/05/28 08:51:08;;;;;;;5.20;1.50;;;;;;;20.55;40.12;99753.88;84803;1323;22596;-73
2022/05/28 08:53:18;;;;;;;3.80;1.00;;;;;;;20.64;40.10;99756.42;84813;1327;22620;-73
2022/05/28 08:55:29;;;;;;;2.80;0.90;;;;;;;21.39;38.60;99752.96;84798;1327;22809;-73
2022/05/28 08:57:49;;;;;;;4.00;0.80;;;;;;;22.21;37.20;99749.11;84766;1326;25298;-74
2022/05/28 09:00:01;;;;;;;2.00;0.80;;;;;;;23.05;35.10;99749.40;84790;1327;22632;-74
2022/05/28 09:02:11;;;;;;;2.00;0.90;;;;;;;23.63;33.83;99746.56;84794;1326;22592;-74
2022/05/28 09:04:22;;;;;;;2.60;0.70;;;;;;;23.96;31.40;99746.73;84780;1329;22587;-74
2022/05/28 09:06:38;;;;;;;6.20;0.90;;;;;;;23.49;31.82;99755.53;84800;1327;22608;-74
2022/05/28 09:08:47;;;;;;;6.50;1.00;;;;;;;22.86;31.89;99758.79;84789;1327;25465;-72
2022/05/28 09:10:54;;;;;;;3.10;0.80;;;;;;;22.23;31.99;99759.27;84790;1326;22580;-73
2022/05/28 09:13:07;;;;;;;2.80;1.00;;;;;;;21.78;33.32;99763.49;84790;1327;22591;-74
2022/05/28 09:15:15;;;;;;;3.60;0.70;;;;;;;21.85;34.14;99766.09;84793;1325;22602;-73
2022/05/28 09:17:27;;;;;;;3.10;1.60;;;;;;;22.15;34.39;99756.80;84798;1319;22656;-72
2022/05/28 09:19:40;;;;;;;3.90;1.00;;;;;;;22.40;34.36;99754.72;84783;1327;22596;-74
2022/05/28 09:21:48;;;;;;;2.60;1.20;;;;;;;22.35;33.66;99749.70;84783;1327;25418;-74
2022/05/28 09:23:58;;;;;;;5.70;1.20;;;;;;;22.24;33.22;99757.19;84800;1329;24269;-73
2022/05/28 09:26:05;;;;;;;4.20;1.20;;;;;;;21.89;32.41;99759.85;84804;1327;22674;-73
2022/05/28 09:28:22;;;;;;;4.20;0.80;;;;;;;21.44;32.98;99753.70;84778;1328;22589;-73
2022/05/28 09:30:40;;;;;;;4.80;1.50;;;;;;;21.00;33.26;99752.28;84778;1324;22799;-73
2022/05/28 09:33:04;;;;;;;7.70;1.40;;;;;;;20.50;33.79;99756.47;84793;1318;22955;-75
2022/05/28 09:35:18;;;;;;;3.10;1.20;;;;;;;19.96;34.07;99754.62;84803;1327;24111;-74
2022/05/28 09:37:42;;;;;;;1.70;1.00;;;;;;;19.59;35.35;99754.27;84813;1327;22589;-73
2022/05/28 09:39:53;;;;;;;3.80;1.20;;;;;;;19.78;36.40;99750.73;84813;1327;25442;-73
2022/05/28 09:42:09;;;;;;;6.60;1.30;;;;;;;19.99;36.20;99742.81;84783;1327;22610;-72
2022/05/28 09:44:25;;;;;;;5.80;1.40;;;;;;;19.83;35.37;99747.77;84814;1326;22695;-72
2022/05/28 09:46:36;;;;;;;4.60;2.00;;;;;;;19.47;35.54;99752.45;84816;1329;22703;-73
2022/05/28 09:48:46;;;;;;;4.00;1.10;;;;;;;19.00;35.63;99753.38;84796;1327;22584;-72
2022/05/28 09:50:55;;;;;;;4.10;1.50;;;;;;;18.58;36.26;99747.46;84781;1325;22585;-72
2022/05/28 09:55:52;;;;;;;7.90;1.20;;;;;;;18.84;38.81;99745.01;84512;1330;22777;-73
2022/05/28 09:58:04;;;;;;;5.40;1.80;;;;;;;19.29;38.81;99747.47;84656;1329;25431;-73
2022/05/28 10:00:15;;;;;;;3.90;1.00;;;;;;;19.64;37.84;99744.59;84803;1319;22595;-71
2022/05/28 10:02:26;;;;;;;5.90;1.40;;;;;;;19.79;36.88;99739.10;84785;1326;24344;-73
2022/05/28 10:04:33;;;;;;;2.80;1.00;;;;;;;19.61;35.94;99739.63;84811;1326;22606;-73
2022/05/28 10:06:49;;;;;;;5.50;1.40;;;;;;;19.27;36.14;99762.48;84808;1328;22581;-73
2022/05/28 10:08:56;;;;;;;4.20;0.70;;;;;;;19.13;36.79;99765.95;84792;1327;25430;-72
2022/05/28 10:11:06;;;;;;;4.60;0.90;;;;;;;19.12;36.90;99776.49;84804;1325;25438;-73
2022/05/28 10:13:16;;;;;;;5.60;0.80;;;;;;;19.02;36.91;99773.21;84809;1327;22616;-72
2022/05/28 10:15:29;;;;;;;6.90;1.40;;;;;;;18.99;37.83;99770.40;84792;1326;25447;-73
2022/05/28 10:17:36;;;;;;;4.90;1.10;;;;;;;19.06;38.53;99776.55;84792;1329;22582;-73
2022/05/28 10:19:47;;;;;;;5.00;1.20;;;;;;;18.96;37.61;99776.21;84818;1327;22636;-73
2022/05/28 10:21:56;;;;;;;4.00;1.10;;;;;;;18.69;37.61;99777.86;84808;1326;22587;-73